sensor_id;sensor_type;location;lat;lon;timestamp;P1;durP1;ratioP1;P2;durP2;ratioP2
47796;SDS011;33558;50.922;14.068;2023-12-20T10:41:20;5.13;;;1.00;;
47796;SDS011;33558;50.922;14.068;2023-12-20T11:12:20;3.67;;;1.20;;
47796;SDS011;33558;50.922;14.068;2023-12-20T11:14:54;4.05;;;1.38;;
47796;SDS011;33558;50.922;14.068;2023-12-20T11:17:24;6.03;;;1.30;;
47796;SDS011;33558;50.922;14.068;2023-12-20T11:20:04;4.00;;;1.57;;
47796;SDS011;33558;50.922;14.068;2023-12-20T11:22:51;2.00;;;1.00;;
47796;SDS011;33558;50.922;14.068;2023-12-20T11:25:28;4.00;;;1.40;;
47796;SDS011;33558;50.922;14.068;2023-12-20T11:28:26;4.97;;;1.10;;
47796;SDS011;33558;50.922;14.068;2023-12-20T11:31:29;3.83;;;1.57;;
47796;SDS011;33558;50.922;14.068;2023-12-20T11:34:14;4.20;;;1.00;;
47796;SDS011;33558;50.922;14.068;2023-12-20T11:36:45;6.40;;;1.20;;
47796;SDS011;33558;50.922;14.068;2023-12-20T11:39:15;4.00;;;1.13;;
47796;SDS011;33558;50.922;14.068;2023-12-20T11:41:44;3.57;;;1.37;;
47796;SDS011;33558;50.922;14.068;2023-12-20T11:44:47;4.00;;;1.30;;
47796;SDS011;33558;50.922;14.068;2023-12-20T11:47:29;4.27;;;1.40;;
47796;SDS011;33558;50.922;14.068;2023-12-20T11:50:40;6.40;;;1.40;;
47796;SDS011;33558;50.922;14.068;2023-12-20T11:53:21;5.63;;;1.30;;
47796;SDS011;33558;50.922;14.068;2023-12-20T11:55:49;2.77;;;1.30;;
47796;SDS011;33558;50.922;14.068;2023-12-20T11:58:36;2.10;;;1.13;;
47796;SDS011;33558;50.922;14.068;2023-12-20T12:01:14;3.23;;;1.30;;
47796;SDS011;33558;50.922;14.068;2023-12-20T12:03:41;4.07;;;1.40;;
47796;SDS011;33558;50.922;14.068;2023-12-20T12:06:10;4.27;;;1.63;;
47796;SDS011;33558;50.922;14.068;2023-12-20T12:08:42;10.47;;;2.17;;
47796;SDS011;33558;50.922;14.068;2023-12-20T12:11:14;3.03;;;1.52;;
47796;SDS011;33558;50.922;14.068;2023-12-20T12:13:44;5.43;;;1.80;;
47796;SDS011;33558;50.922;14.068;2023-12-20T12:16:35;6.80;;;1.42;;
47796;SDS011;33558;50.922;14.068;2023-12-20T12:20:04;3.30;;;0.93;;
47796;SDS011;33558;50.922;14.068;2023-12-20T12:22:39;4.73;;;1.23;;
47796;SDS011;33558;50.922;14.068;2023-12-20T12:25:13;2.33;;;0.93;;
47796;SDS011;33558;50.922;14.068;2023-12-20T12:27:40;3.77;;;1.50;;
47796;SDS011;33558;50.922;14.068;2023-12-20T12:30:09;3.83;;;1.20;;
47796;SDS011;33558;50.922;14.068;2023-12-20T12:32:40;3.67;;;1.33;;
47796;SDS011;33558;50.922;14.068;2023-12-20T12:35:11;2.93;;;1.10;;
47796;SDS011;33558;50.922;14.068;2023-12-20T12:40:41;3.40;;;1.17;;
47796;SDS011;33558;50.922;14.068;2023-12-20T12:43:12;3.17;;;1.60;;
47796;SDS011;33558;50.922;14.068;2023-12-20T12:49:51;4.67;;;1.40;;
47796;SDS011;33558;50.922;14.068;2023-12-20T12:52:26;7.93;;;1.60;;
47796;SDS011;33558;50.922;14.068;2023-12-20T12:58:49;3.95;;;1.20;;
47796;SDS011;33558;50.922;14.068;2023-12-20T13:01:17;2.60;;;1.10;;
47796;SDS011;33558;50.922;14.068;2023-12-20T13:04:28;5.83;;;1.47;;
47796;SDS011;33558;50.922;14.068;2023-12-20T13:07:14;7.40;;;1.40;;
47796;SDS011;33558;50.922;14.068;2023-12-20T13:09:49;2.45;;;1.20;;
47796;SDS011;33558;50.922;14.068;2023-12-20T13:12:17;4.10;;;1.60;;
47796;SDS011;33558;50.922;14.068;2023-12-20T13:14:58;4.53;;;1.00;;
47796;SDS011;33558;50.922;14.068;2023-12-20T13:20:11;2.57;;;1.43;;
47796;SDS011;33558;50.922;14.068;2023-12-20T13:22:40;4.73;;;1.43;;
47796;SDS011;33558;50.922;14.068;2023-12-20T13:30:47;3.40;;;1.00;;
47796;SDS011;33558;50.922;14.068;2023-12-20T13:33:17;4.53;;;1.07;;
47796;SDS011;33558;50.922;14.068;2023-12-20T13:35:44;3.07;;;1.17;;
47796;SDS011;33558;50.922;14.068;2023-12-20T13:38:12;6.57;;;1.17;;
47796;SDS011;33558;50.922;14.068;2023-12-20T13:40:39;3.87;;;1.40;;
47796;SDS011;33558;50.922;14.068;2023-12-20T13:43:06;2.30;;;1.00;;
47796;SDS011;33558;50.922;14.068;2023-12-20T13:45:35;3.03;;;1.23;;
47796;SDS011;33558;50.922;14.068;2023-12-20T13:48:06;4.00;;;1.23;;
47796;SDS011;33558;50.922;14.068;2023-12-20T13:50:33;5.27;;;1.53;;
47796;SDS011;33558;50.922;14.068;2023-12-20T13:53:03;5.83;;;1.10;;
47796;SDS011;33558;50.922;14.068;2023-12-20T13:55:39;2.27;;;1.03;;
47796;SDS011;33558;50.922;14.068;2023-12-20T14:08:41;4.57;;;1.00;;
47796;SDS011;33558;50.922;14.068;2023-12-20T14:11:32;2.30;;;1.20;;
47796;SDS011;33558;50.922;14.068;2023-12-20T14:14:13;3.27;;;1.00;;
47796;SDS011;33558;50.922;14.068;2023-12-20T14:19:58;3.13;;;1.70;;
47796;SDS011;33558;50.922;14.068;2023-12-20T14:22:36;2.47;;;0.80;;
47796;SDS011;33558;50.922;14.068;2023-12-20T14:25:26;2.33;;;0.90;;
47796;SDS011;33558;50.922;14.068;2023-12-20T14:40:40;2.57;;;1.20;;
47796;SDS011;33558;50.922;14.068;2023-12-20T14:43:07;1.90;;;1.00;;
47796;SDS011;33558;50.922;14.068;2023-12-20T14:45:34;2.20;;;1.00;;
47796;SDS011;33558;50.922;14.068;2023-12-20T14:48:02;1.67;;;1.20;;
47796;SDS011;33558;50.922;14.068;2023-12-20T14:50:29;4.10;;;1.10;;
47796;SDS011;33558;50.922;14.068;2023-12-20T14:52:57;2.97;;;1.30;;
47796;SDS011;33558;50.922;14.068;2023-12-20T14:55:25;2.90;;;1.10;;
47796;SDS011;33558;50.922;14.068;2023-12-20T14:58:06;3.43;;;1.23;;
47796;SDS011;33558;50.922;14.068;2023-12-20T15:00:46;4.00;;;1.43;;
47796;SDS011;33558;50.922;14.068;2023-12-20T15:07:10;2.93;;;1.43;;
47796;SDS011;33558;50.922;14.068;2023-12-20T15:09:44;3.17;;;1.37;;
47796;SDS011;33558;50.922;14.068;2023-12-20T15:12:24;2.93;;;1.43;;
47796;SDS011;33558;50.922;14.068;2023-12-20T15:17:42;1.73;;;0.93;;
47796;SDS011;33558;50.922;14.068;2023-12-20T15:20:12;2.23;;;0.80;;
47796;SDS011;33558;50.922;14.068;2023-12-20T15:22:43;2.90;;;1.20;;
47796;SDS011;33558;50.922;14.068;2023-12-20T15:25:27;4.68;;;1.65;;
47796;SDS011;33558;50.922;14.068;2023-12-20T15:27:57;3.83;;;1.20;;
47796;SDS011;33558;50.922;14.068;2023-12-20T15:35:29;2.67;;;1.20;;
47796;SDS011;33558;50.922;14.068;2023-12-20T15:57:36;3.43;;;1.07;;
47796;SDS011;33558;50.922;14.068;2023-12-20T16:00:21;2.80;;;0.90;;
47796;SDS011;33558;50.922;14.068;2023-12-20T16:03:39;2.17;;;1.07;;
47796;SDS011;33558;50.922;14.068;2023-12-20T16:06:14;2.37;;;0.97;;
47796;SDS011;33558;50.922;14.068;2023-12-20T16:08:55;2.77;;;1.30;;
47796;SDS011;33558;50.922;14.068;2023-12-20T16:11:45;2.47;;;1.10;;
47796;SDS011;33558;50.922;14.068;2023-12-20T16:14:22;2.27;;;0.87;;
47796;SDS011;33558;50.922;14.068;2023-12-20T16:17:17;2.60;;;1.10;;
47796;SDS011;33558;50.922;14.068;2023-12-20T16:52:58;4.77;;;1.07;;
47796;SDS011;33558;50.922;14.068;2023-12-20T16:58:02;2.10;;;1.07;;
47796;SDS011;33558;50.922;14.068;2023-12-20T17:00:32;2.13;;;1.17;;
47796;SDS011;33558;50.922;14.068;2023-12-20T17:03:20;2.73;;;0.90;;
47796;SDS011;33558;50.922;14.068;2023-12-20T17:05:54;3.80;;;1.17;;
47796;SDS011;33558;50.922;14.068;2023-12-20T17:11:44;3.10;;;1.00;;
47796;SDS011;33558;50.922;14.068;2023-12-20T17:14:45;5.13;;;1.50;;
47796;SDS011;33558;50.922;14.068;2023-12-20T17:17:16;2.67;;;1.17;;
47796;SDS011;33558;50.922;14.068;2023-12-20T17:19:56;2.43;;;1.00;;
47796;SDS011;33558;50.922;14.068;2023-12-20T17:22:30;2.27;;;1.00;;
47796;SDS011;33558;50.922;14.068;2023-12-20T17:24:59;4.27;;;1.47;;
47796;SDS011;33558;50.922;14.068;2023-12-20T17:27:28;3.63;;;1.17;;
47796;SDS011;33558;50.922;14.068;2023-12-20T17:30:12;3.27;;;1.20;;
47796;SDS011;33558;50.922;14.068;2023-12-20T17:36:26;2.97;;;1.05;;
47796;SDS011;33558;50.922;14.068;2023-12-20T17:38:57;4.70;;;1.63;;
47796;SDS011;33558;50.922;14.068;2023-12-20T17:41:50;5.23;;;1.70;;
47796;SDS011;33558;50.922;14.068;2023-12-20T17:44:23;2.70;;;1.30;;
47796;SDS011;33558;50.922;14.068;2023-12-20T17:47:05;5.13;;;1.23;;
47796;SDS011;33558;50.922;14.068;2023-12-20T17:49:42;5.70;;;1.27;;
47796;SDS011;33558;50.922;14.068;2023-12-20T17:52:29;4.03;;;1.07;;
47796;SDS011;33558;50.922;14.068;2023-12-20T17:55:00;2.47;;;1.30;;
47796;SDS011;33558;50.922;14.068;2023-12-20T18:04:17;3.13;;;1.10;;
47796;SDS011;33558;50.922;14.068;2023-12-20T18:06:46;3.60;;;1.23;;
47796;SDS011;33558;50.922;14.068;2023-12-20T18:09:39;1.77;;;0.97;;
47796;SDS011;33558;50.922;14.068;2023-12-20T18:12:27;3.60;;;1.50;;
47796;SDS011;33558;50.922;14.068;2023-12-20T18:15:12;2.07;;;1.10;;
47796;SDS011;33558;50.922;14.068;2023-12-20T18:17:46;4.70;;;1.53;;
47796;SDS011;33558;50.922;14.068;2023-12-20T18:23:55;6.57;;;1.52;;
47796;SDS011;33558;50.922;14.068;2023-12-20T18:29:27;2.57;;;1.37;;
47796;SDS011;33558;50.922;14.068;2023-12-20T18:32:14;2.97;;;1.40;;
47796;SDS011;33558;50.922;14.068;2023-12-20T18:35:05;4.87;;;1.70;;
47796;SDS011;33558;50.922;14.068;2023-12-20T18:37:52;3.03;;;1.30;;
47796;SDS011;33558;50.922;14.068;2023-12-20T18:50:52;3.63;;;2.00;;
47796;SDS011;33558;50.922;14.068;2023-12-20T18:53:19;4.23;;;1.60;;
47796;SDS011;33558;50.922;14.068;2023-12-20T18:55:46;3.23;;;1.53;;
47796;SDS011;33558;50.922;14.068;2023-12-20T18:58:13;5.23;;;2.10;;
47796;SDS011;33558;50.922;14.068;2023-12-20T19:00:40;4.10;;;1.90;;
47796;SDS011;33558;50.922;14.068;2023-12-20T19:03:07;4.63;;;2.40;;
47796;SDS011;33558;50.922;14.068;2023-12-20T19:05:35;3.23;;;2.10;;
47796;SDS011;33558;50.922;14.068;2023-12-20T19:30:43;3.30;;;1.40;;
47796;SDS011;33558;50.922;14.068;2023-12-20T19:33:35;4.13;;;1.60;;
47796;SDS011;33558;50.922;14.068;2023-12-20T19:40:43;4.47;;;1.73;;
47796;SDS011;33558;50.922;14.068;2023-12-20T20:01:32;6.47;;;3.00;;
47796;SDS011;33558;50.922;14.068;2023-12-20T20:04:02;7.10;;;2.73;;
47796;SDS011;33558;50.922;14.068;2023-12-20T20:15:04;7.60;;;3.33;;
47796;SDS011;33558;50.922;14.068;2023-12-20T20:17:33;5.57;;;2.53;;
47796;SDS011;33558;50.922;14.068;2023-12-20T20:56:55;1.30;;;0.80;;
47796;SDS011;33558;50.922;14.068;2023-12-20T21:02:42;1.33;;;1.23;;
47796;SDS011;33558;50.922;14.068;2023-12-20T21:05:09;1.33;;;0.60;;
47796;SDS011;33558;50.922;14.068;2023-12-20T21:16:05;1.60;;;0.60;;
47796;SDS011;33558;50.922;14.068;2023-12-20T21:22:24;1.17;;;0.60;;
47796;SDS011;33558;50.922;14.068;2023-12-20T21:25:20;0.73;;;0.43;;
47796;SDS011;33558;50.922;14.068;2023-12-20T21:38:40;1.40;;;0.70;;
47796;SDS011;33558;50.922;14.068;2023-12-20T21:41:48;2.10;;;0.70;;
47796;SDS011;33558;50.922;14.068;2023-12-20T21:44:26;0.80;;;0.57;;
47796;SDS011;33558;50.922;14.068;2023-12-20T21:47:27;2.03;;;0.60;;
47796;SDS011;33558;50.922;14.068;2023-12-20T21:51:06;1.17;;;0.70;;
47796;SDS011;33558;50.922;14.068;2023-12-20T22:07:49;1.63;;;0.70;;
47796;SDS011;33558;50.922;14.068;2023-12-20T22:13:32;1.07;;;0.67;;
47796;SDS011;33558;50.922;14.068;2023-12-20T22:17:05;1.40;;;0.90;;
47796;SDS011;33558;50.922;14.068;2023-12-20T22:20:15;0.90;;;0.63;;
47796;SDS011;33558;50.922;14.068;2023-12-20T22:33:37;1.20;;;0.70;;
47796;SDS011;33558;50.922;14.068;2023-12-20T22:36:11;3.80;;;0.50;;
47796;SDS011;33558;50.922;14.068;2023-12-20T22:39:30;0.63;;;0.30;;
47796;SDS011;33558;50.922;14.068;2023-12-20T22:42:40;1.40;;;0.70;;
47796;SDS011;33558;50.922;14.068;2023-12-20T22:46:26;3.20;;;0.70;;
47796;SDS011;33558;50.922;14.068;2023-12-20T23:09:04;0.43;;;0.38;;
47796;SDS011;33558;50.922;14.068;2023-12-20T23:11:34;0.80;;;0.40;;
47796;SDS011;33558;50.922;14.068;2023-12-20T23:14:08;0.60;;;0.50;;
47796;SDS011;33558;50.922;14.068;2023-12-20T23:16:55;0.50;;;0.47;;
47796;SDS011;33558;50.922;14.068;2023-12-20T23:19:26;2.00;;;0.50;;
47796;SDS011;33558;50.922;14.068;2023-12-20T23:22:02;1.75;;;0.65;;
47796;SDS011;33558;50.922;14.068;2023-12-20T23:24:50;0.70;;;0.33;;
47796;SDS011;33558;50.922;14.068;2023-12-20T23:27:24;1.13;;;0.60;;
47796;SDS011;33558;50.922;14.068;2023-12-20T23:30:11;1.27;;;0.70;;
47796;SDS011;33558;50.922;14.068;2023-12-20T23:32:43;0.50;;;0.50;;
47796;SDS011;33558;50.922;14.068;2023-12-20T23:35:10;0.83;;;0.53;;
47796;SDS011;33558;50.922;14.068;2023-12-20T23:37:38;1.43;;;0.50;;
47796;SDS011;33558;50.922;14.068;2023-12-20T23:40:10;0.63;;;0.50;;
47796;SDS011;33558;50.922;14.068;2023-12-20T23:43:08;0.73;;;0.53;;
47796;SDS011;33558;50.922;14.068;2023-12-20T23:45:41;9.00;;;1.13;;
47796;SDS011;33558;50.922;14.068;2023-12-20T23:48:08;1.50;;;0.40;;
47796;SDS011;33558;50.922;14.068;2023-12-20T23:50:38;0.80;;;0.63;;
47796;SDS011;33558;50.922;14.068;2023-12-20T23:53:05;0.57;;;0.47;;
47796;SDS011;33558;50.922;14.068;2023-12-20T23:55:34;1.03;;;0.43;;
47796;SDS011;33558;50.922;14.068;2023-12-20T23:58:01;0.63;;;0.37;;
